Time;durP1;ratioP1;P1;durP2;ratioP2;P2;SDS_P1;SDS_P2;PMS_P1;PMS_P2;Temp;Humidity;BMP_temperature;BMP_pressure;BME280_temperature;BME280_humidity;BME280_pressure;Samples;Min_cycle;Max_cycle;Signal;HPM_P1;HPM_P2
2023/04/07 00:01:13;;;;;;;;;;;8.60;80.40;;;;;;5035768;28;19935;-64
2023/04/07 00:03:40;;;;;;;;;;;8.50;80.80;;;;;;5031468;28;20021;-65
2023/04/07 00:06:07;;;;;;;;;;;8.60;80.80;;;;;;5035216;28;19929;-72
2023/04/07 00:08:34;;;;;;;;;;;8.50;81.00;;;;;;5034778;28;19921;-75
2023/04/07 00:11:00;;;;;;;;;;;8.50;81.30;;;;;;5032226;28;19928;-73
2023/04/07 00:13:27;;;;;;;;;;;8.50;81.30;;;;;;5032873;28;19928;-74
2023/04/07 00:15:55;;;;;;;;;;;8.50;81.40;;;;;;5037167;28;19932;-69
2023/04/07 00:18:22;;;;;;;;;;;8.50;81.40;;;;;;5036132;28;19927;-70
2023/04/07 00:20:49;;;;;;;;;;;8.50;81.20;;;;;;5035222;28;19920;-69
2023/04/07 00:23:15;;;;;;;;;;;8.50;81.10;;;;;;5033019;28;20291;-70
2023/04/07 00:25:42;;;;;;;;;;;8.50;81.20;;;;;;5016122;28;19928;-68
2023/04/07 00:28:09;;;;;;;;;;;8.50;81.40;;;;;;5032836;28;19920;-70
2023/04/07 00:30:35;;;;;;;;;;;8.40;81.60;;;;;;5035669;28;19956;-63
2023/04/07 00:33:03;;;;;;;;;;;8.50;81.70;;;;;;5038000;28;20020;-63
2023/04/07 00:35:30;;;;;;;;;;;8.40;81.90;;;;;;5040795;28;19927;-64
2023/04/07 00:37:57;;;;;;;;;;;8.40;81.90;;;;;;5035222;28;20015;-63
2023/04/07 00:40:24;;;;;;;;;;;8.40;82.00;;;;;;5020892;28;20371;-68
2023/04/07 00:42:50;;;;;;;;;;;8.40;81.90;;;;;;5036017;28;19937;-76
2023/04/07 00:45:17;;;;;;;;;;;8.40;81.80;;;;;;5042224;28;19925;-75
2023/04/07 00:47:44;;;;;;;;;;;8.40;81.90;;;;;;5025764;28;19931;-73
2023/04/07 00:50:12;;;;;;;;;;;8.40;81.90;;;;;;5039727;28;19920;-73
2023/04/07 00:52:39;;;;;;;;;;;8.50;82.00;;;;;;5019830;28;19929;-70
2023/04/07 00:55:07;;;;;;;;;;;8.40;82.50;;;;;;5024438;28;19929;-70
2023/04/07 00:57:34;;;;;;;;;;;8.40;82.60;;;;;;5036494;28;19925;-74
2023/04/07 01:00:01;;;;;;;;;;;8.40;82.50;;;;;;5023263;28;19925;-76
2023/04/07 01:02:32;;;;;;;;;;;8.40;82.50;;;;;;5035096;28;20009;-74
2023/04/07 01:05:03;;;;;;;;;;;8.30;82.50;;;;;;5035079;28;20015;-74
2023/04/07 01:07:34;;;;;;;;;;;8.40;82.60;;;;;;5006775;28;20414;-66
2023/04/07 01:10:07;;;;;;;;;;;8.40;82.70;;;;;;5021318;28;20486;-66
2023/04/07 01:12:44;;;;;;;;;;;8.30;82.70;;;;;;5021483;28;20203;-74
2023/04/07 01:15:13;;;;;;;;;;;8.30;82.70;;;;;;5019379;28;19925;-74
2023/04/07 01:17:45;;;;;;;;;;;8.30;82.80;;;;;;5015745;28;20020;-65
2023/04/07 01:20:14;;;;;;;;;;;8.30;82.70;;;;;;5005489;28;19931;-67
2023/04/07 01:22:44;;;;;;;;;;;8.30;82.70;;;;;;5008309;28;19929;-63
2023/04/07 01:25:25;;;;;;;;;;;8.30;82.70;;;;;;5004026;28;20003;-64
2023/04/07 01:27:58;;;;;;;;;;;8.20;82.90;;;;;;5037998;28;19932;-65
2023/04/07 01:30:27;;;;;;;;;;;8.20;83.20;;;;;;5002171;28;19925;-63
2023/04/07 01:32:56;;;;;;;;;;;8.30;83.00;;;;;;5035471;28;19976;-64
2023/04/07 01:35:23;;;;;;;;;;;8.20;82.20;;;;;;5039241;28;19932;-64
2023/04/07 01:37:50;;;;;;;;;;;8.20;82.20;;;;;;5031688;28;19924;-64
2023/04/07 01:40:17;;;;;;;;;;;8.20;82.20;;;;;;5037274;28;19929;-63
2023/04/07 01:42:48;;;;;;;;;;;8.20;82.40;;;;;;5034243;28;19925;-62
2023/04/07 01:45:18;;;;;;;;;;;8.20;82.40;;;;;;5033719;28;20013;-64
2023/04/07 01:47:46;;;;;;;;;;;8.10;82.60;;;;;;5019100;28;19927;-64
2023/04/07 01:50:13;;;;;;;;;;;8.10;82.70;;;;;;5018631;28;19921;-64
2023/04/07 01:52:41;;;;;;;;;;;8.10;82.50;;;;;;5017376;28;19925;-64
2023/04/07 01:55:13;;;;;;;;;;;8.10;82.70;;;;;;5019142;28;19928;-65
2023/04/07 01:57:48;;;;;;;;;;;8.10;82.60;;;;;;5018058;28;19924;-62
2023/04/07 02:00:19;;;;;;;;;;;8.10;82.60;;;;;;5008379;28;20341;-64
2023/04/07 02:02:54;;;;;;;;;;;8.10;82.40;;;;;;5000256;28;20007;-63
2023/04/07 02:05:21;;;;;;;;;;;8.10;82.60;;;;;;5034418;28;19935;-62
2023/04/07 02:07:51;;;;;;;;;;;8.10;82.80;;;;;;5003762;28;20474;-64
2023/04/07 02:10:21;;;;;;;;;;;8.00;83.00;;;;;;5037456;28;20482;-62
2023/04/07 02:12:48;;;;;;;;;;;8.00;83.00;;;;;;5033700;28;19931;-62
2023/04/07 02:15:19;;;;;;;;;;;8.00;82.90;;;;;;5039061;28;19943;-62
2023/04/07 02:17:47;;;;;;;;;;;8.00;82.90;;;;;;5016068;28;19926;-64
2023/04/07 02:20:16;;;;;;;;;;;8.00;83.00;;;;;;5029124;28;19920;-64
2023/04/07 02:22:43;;;;;;;;;;;8.00;83.10;;;;;;5037240;28;20019;-69
2023/04/07 02:25:21;;;;;;;;;;;8.00;83.10;;;;;;5038047;28;20401;-70
2023/04/07 02:27:48;;;;;;;;;;;8.00;83.00;;;;;;5027327;28;19965;-70
2023/04/07 02:30:15;;;;;;;;;;;8.00;83.00;;;;;;5020513;28;20290;-68
2023/04/07 02:32:42;;;;;;;;;;;8.00;82.80;;;;;;5037589;28;19929;-68
2023/04/07 02:35:08;;;;;;;;;;;8.00;82.90;;;;;;5036550;28;19925;-69
2023/04/07 02:37:36;;;;;;;;;;;8.00;83.20;;;;;;5034439;28;19983;-69
2023/04/07 02:40:03;;;;;;;;;;;7.90;83.30;;;;;;5033194;28;19932;-70
2023/04/07 02:42:30;;;;;;;;;;;7.90;83.20;;;;;;5037347;28;19921;-69
2023/04/07 02:44:57;;;;;;;;;;;7.90;83.10;;;;;;5008567;28;19992;-70
2023/04/07 02:47:24;;;;;;;;;;;8.00;83.20;;;;;;5033692;28;19920;-62
2023/04/07 02:49:50;;;;;;;;;;;7.90;83.40;;;;;;5006870;28;19928;-64
2023/04/07 02:52:17;;;;;;;;;;;7.90;83.70;;;;;;5020334;28;20003;-63
2023/04/07 02:54:46;;;;;;;;;;;7.90;83.70;;;;;;5018268;28;19932;-62
2023/04/07 02:57:13;;;;;;;;;;;7.90;83.70;;;;;;5020545;28;20005;-62
2023/04/07 02:59:40;;;;;;;;;;;7.90;83.70;;;;;;5038110;28;19929;-63
2023/04/07 03:02:08;;;;;;;;;;;8.00;83.60;;;;;;5017642;28;20458;-62
2023/04/07 03:04:35;;;;;;;;;;;7.90;83.80;;;;;;5018217;28;19920;-65
2023/04/07 03:07:02;;;;;;;;;;;7.90;83.60;;;;;;5035843;28;19929;-62
2023/04/07 03:09:31;;;;;;;;;;;7.90;83.70;;;;;;5015846;28;19932;-63
2023/04/07 03:12:01;;;;;;;;;;;7.90;83.70;;;;;;5035920;28;19921;-62
2023/04/07 03:14:31;;;;;;;;;;;7.90;83.80;;;;;;5007030;28;19921;-64
2023/04/07 03:17:00;;;;;;;;;;;7.90;83.80;;;;;;5015888;28;19936;-64
2023/04/07 03:19:27;;;;;;;;;;;7.90;84.00;;;;;;5038042;28;19929;-62
2023/04/07 03:21:54;;;;;;;;;;;7.80;84.20;;;;;;5032598;28;19928;-72
2023/04/07 03:24:20;;;;;;;;;;;7.90;84.00;;;;;;5019582;28;19929;-75
2023/04/07 03:26:47;;;;;;;;;;;7.80;84.20;;;;;;5035988;28;19921;-63
2023/04/07 03:29:24;;;;;;;;;;;7.80;84.40;;;;;;5018235;28;19974;-63
2023/04/07 03:31:52;;;;;;;;;;;7.90;83.80;;;;;;5016972;28;20341;-62
2023/04/07 03:34:23;;;;;;;;;;;7.80;83.70;;;;;;5035416;28;19925;-62
2023/04/07 03:36:50;;;;;;;;;;;7.90;83.90;;;;;;5036980;28;19924;-72
2023/04/07 03:39:17;;;;;;;;;;;7.80;83.90;;;;;;5012113;28;19935;-72
2023/04/07 03:41:44;;;;;;;;;;;7.80;83.70;;;;;;5015306;28;19929;-73
2023/04/07 03:44:11;;;;;;;;;;;7.80;83.90;;;;;;5016382;28;19921;-73
2023/04/07 03:46:41;;;;;;;;;;;7.80;84.00;;;;;;5003113;28;20440;-68
2023/04/07 03:49:08;;;;;;;;;;;7.80;83.90;;;;;;5037271;28;19925;-68
2023/04/07 03:51:34;;;;;;;;;;;7.80;84.00;;;;;;5032201;28;19924;-63
2023/04/07 03:54:04;;;;;;;;;;;7.70;84.00;;;;;;5001883;28;19964;-63
2023/04/07 03:56:36;;;;;;;;;;;7.80;83.90;;;;;;5032907;28;19931;-63
2023/04/07 03:59:02;;;;;;;;;;;7.70;84.10;;;;;;5033154;28;19951;-62
2023/04/07 04:01:33;;;;;;;;;;;7.70;84.40;;;;;;5016316;28;19925;-63
2023/04/07 04:04:08;;;;;;;;;;;7.70;84.30;;;;;;5018128;28;20228;-63
2023/04/07 04:06:35;;;;;;;;;;;7.70;84.30;;;;;;5033625;28;19928;-72
2023/04/07 04:09:13;;;;;;;;;;;7.70;84.40;;;;;;5018610;28;19929;-73
2023/04/07 04:11:45;;;;;;;;;;;7.70;84.40;;;;;;5024103;28;19929;-63
2023/04/07 04:14:12;;;;;;;;;;;7.70;84.40;;;;;;5018279;28;20010;-63
2023/04/07 04:16:40;;;;;;;;;;;7.70;84.10;;;;;;5038190;28;19924;-73
2023/04/07 04:19:25;;;;;;;;;;;7.70;83.90;;;;;;5005725;28;20266;-73
2023/04/07 04:21:52;;;;;;;;;;;7.70;83.70;;;;;;5037731;28;20008;-73
2023/04/07 04:24:20;;;;;;;;;;;7.70;83.90;;;;;;5019497;28;19925;-73
2023/04/07 04:26:47;;;;;;;;;;;7.70;83.70;;;;;;5023436;28;19925;-73
2023/04/07 04:29:15;;;;;;;;;;;7.70;84.00;;;;;;5035388;28;20031;-74
2023/04/07 04:31:43;;;;;;;;;;;7.70;84.00;;;;;;5015303;28;19929;-63
2023/04/07 04:34:10;;;;;;;;;;;7.70;84.30;;;;;;5035795;28;19929;-66
2023/04/07 04:36:40;;;;;;;;;;;7.70;84.60;;;;;;5019853;28;20012;-67
2023/04/07 04:39:07;;;;;;;;;;;7.70;84.60;;;;;;5033541;28;19928;-68
2023/04/07 04:41:35;;;;;;;;;;;7.70;84.60;;;;;;5018577;28;19974;-64
2023/04/07 04:44:02;;;;;;;;;;;7.60;84.70;;;;;;5040655;28;20019;-63
2023/04/07 04:46:30;;;;;;;;;;;7.60;84.50;;;;;;5021761;28;22427;-67
2023/04/07 04:48:57;;;;;;;;;;;7.70;84.10;;;;;;5004807;28;19935;-68
2023/04/07 04:51:26;;;;;;;;;;;7.70;83.80;;;;;;5016841;28;19921;-72
2023/04/07 04:53:59;;;;;;;;;;;7.70;84.10;;;;;;5015816;28;19927;-71
2023/04/07 04:56:27;;;;;;;;;;;7.70;83.90;;;;;;4995897;28;19929;-73
2023/04/07 04:58:54;;;;;;;;;;;7.70;84.00;;;;;;5025294;28;19932;-73
2023/04/07 05:01:38;;;;;;;;;;;7.60;84.10;;;;;;5035312;28;19927;-63
2023/04/07 05:04:12;;;;;;;;;;;7.60;83.80;;;;;;5019936;28;19975;-64
2023/04/07 05:06:45;;;;;;;;;;;7.70;83.80;;;;;;5020727;28;19925;-64
2023/04/07 05:09:14;;;;;;;;;;;7.70;83.80;;;;;;5034421;28;19929;-65
2023/04/07 05:11:44;;;;;;;;;;;7.70;84.30;;;;;;5004105;28;19921;-64
2023/04/07 05:14:11;;;;;;;;;;;7.60;84.60;;;;;;5008961;28;19984;-64
2023/04/07 05:16:43;;;;;;;;;;;7.60;84.60;;;;;;5017510;28;19948;-64
2023/04/07 05:19:15;;;;;;;;;;;7.60;84.70;;;;;;5022577;28;19927;-63
2023/04/07 05:21:42;;;;;;;;;;;7.60;84.70;;;;;;5019776;28;19924;-61
2023/04/07 05:24:09;;;;;;;;;;;7.60;84.90;;;;;;5013313;28;20270;-63
2023/04/07 05:26:38;;;;;;;;;;;7.60;84.70;;;;;;5014615;28;19928;-62
2023/04/07 05:29:05;;;;;;;;;;;7.60;84.70;;;;;;4999451;28;19925;-62
2023/04/07 05:31:34;;;;;;;;;;;7.60;84.90;;;;;;5017595;28;19982;-76
2023/04/07 05:34:03;;;;;;;;;;;7.60;84.70;;;;;;5020428;28;19925;-75
2023/04/07 05:36:35;;;;;;;;;;;7.60;84.80;;;;;;5001168;28;19928;-71
2023/04/07 05:39:02;;;;;;;;;;;7.70;84.60;;;;;;5034365;28;19927;-74
2023/04/07 05:41:29;;;;;;;;;;;7.60;84.90;;;;;;5003125;28;19921;-73
2023/04/07 05:43:57;;;;;;;;;;;7.70;84.60;;;;;;5017005;28;20024;-72
2023/04/07 05:46:25;;;;;;;;;;;7.70;84.70;;;;;;5016718;28;19986;-63
2023/04/07 05:48:56;;;;;;;;;;;7.70;85.00;;;;;;5017796;28;19924;-64
2023/04/07 05:51:25;;;;;;;;;;;7.70;84.70;;;;;;5027240;28;19929;-69
2023/04/07 05:53:53;;;;;;;;;;;7.70;85.00;;;;;;5019792;28;20059;-67
2023/04/07 05:56:22;;;;;;;;;;;7.70;85.00;;;;;;5022416;28;20382;-63
2023/04/07 05:58:49;;;;;;;;;;;7.70;85.00;;;;;;5018699;28;20447;-63
2023/04/07 06:01:18;;;;;;;;;;;7.70;85.10;;;;;;5023722;28;19920;-68
2023/04/07 06:03:45;;;;;;;;;;;7.70;85.20;;;;;;5036996;28;19995;-68
2023/04/07 06:06:19;;;;;;;;;;;7.70;84.80;;;;;;5020256;28;19932;-63
2023/04/07 06:08:46;;;;;;;;;;;7.70;84.90;;;;;;5038499;28;19927;-62
2023/04/07 06:11:13;;;;;;;;;;;7.70;85.00;;;;;;5034482;28;19921;-69
2023/04/07 06:13:40;;;;;;;;;;;7.70;84.90;;;;;;5038474;28;19947;-68
2023/04/07 06:16:06;;;;;;;;;;;7.70;84.90;;;;;;5018908;28;19954;-67
2023/04/07 06:18:35;;;;;;;;;;;7.70;84.50;;;;;;5020880;28;20392;-68
2023/04/07 06:21:02;;;;;;;;;;;7.70;84.40;;;;;;5016092;28;19929;-64
2023/04/07 06:23:28;;;;;;;;;;;7.70;84.80;;;;;;5035642;28;20024;-64
2023/04/07 06:25:55;;;;;;;;;;;7.70;85.10;;;;;;5034035;28;19931;-61
2023/04/07 06:28:22;;;;;;;;;;;7.70;84.80;;;;;;5014474;28;19936;-60
2023/04/07 06:30:49;;;;;;;;;;;7.80;84.90;;;;;;5014194;28;19925;-62
2023/04/07 06:33:16;;;;;;;;;;;7.70;85.00;;;;;;5016573;28;20049;-62
2023/04/07 06:35:44;;;;;;;;;;;7.70;84.80;;;;;;5037966;28;19925;-62
2023/04/07 06:38:12;;;;;;;;;;;7.70;84.80;;;;;;5032507;28;19932;-63
2023/04/07 06:40:39;;;;;;;;;;;7.80;84.80;;;;;;5027746;28;20004;-62
2023/04/07 06:43:06;;;;;;;;;;;7.70;85.00;;;;;;5029447;28;19932;-63
2023/04/07 06:45:51;;;;;;;;;;;7.70;85.00;;;;;;5032446;28;20490;-63
2023/04/07 06:48:18;;;;;;;;;;;7.70;85.10;;;;;;5031175;28;20042;-63
2023/04/07 06:50:49;;;;;;;;;;;7.80;84.50;;;;;;5032694;28;19963;-63
2023/04/07 06:53:15;;;;;;;;;;;7.90;84.80;;;;;;5032631;28;19925;-64
2023/04/07 06:55:42;;;;;;;;;;;7.90;84.90;;;;;;5035791;28;19925;-64
2023/04/07 06:58:09;;;;;;;;;;;7.90;85.00;;;;;;5028928;28;19952;-63
2023/04/07 07:00:36;;;;;;;;;;;8.00;84.80;;;;;;5028182;28;20055;-64
2023/04/07 07:03:03;;;;;;;;;;;8.00;84.20;;;;;;5032038;28;19928;-64
2023/04/07 07:05:30;;;;;;;;;;;8.00;84.60;;;;;;5030160;28;19932;-65
2023/04/07 07:07:58;;;;;;;;;;;8.10;84.70;;;;;;5032971;28;19927;-63
2023/04/07 07:10:25;;;;;;;;;;;8.10;84.70;;;;;;5032695;28;20512;-63
2023/04/07 07:12:52;;;;;;;;;;;8.10;84.90;;;;;;5034966;28;19924;-63
2023/04/07 07:15:19;;;;;;;;;;;8.10;84.40;;;;;;5032784;28;19936;-65
2023/04/07 07:17:45;;;;;;;;;;;8.10;84.70;;;;;;5031050;28;19975;-63
2023/04/07 07:20:12;;;;;;;;;;;8.10;84.80;;;;;;5029056;28;19974;-66
2023/04/07 07:22:40;;;;;;;;;;;8.10;84.60;;;;;;5036972;28;20523;-64
2023/04/07 07:25:09;;;;;;;;;;;8.20;84.80;;;;;;5034543;28;19932;-65
2023/04/07 07:27:35;;;;;;;;;;;8.20;84.40;;;;;;5027432;28;19921;-64
2023/04/07 07:30:02;;;;;;;;;;;8.20;83.90;;;;;;5034316;28;19927;-64
2023/04/07 07:32:29;;;;;;;;;;;8.20;84.70;;;;;;5033842;28;19927;-72
2023/04/07 07:34:56;;;;;;;;;;;8.20;84.30;;;;;;5031192;28;19929;-74
2023/04/07 07:37:23;;;;;;;;;;;8.20;84.50;;;;;;5032699;28;19929;-75
2023/04/07 07:39:49;;;;;;;;;;;8.20;84.80;;;;;;5030047;28;20304;-72
2023/04/07 07:42:18;;;;;;;;;;;8.20;84.30;;;;;;5032246;28;20034;-67
2023/04/07 07:44:44;;;;;;;;;;;8.20;84.70;;;;;;5033581;28;19921;-68
2023/04/07 07:47:11;;;;;;;;;;;8.20;84.50;;;;;;5031045;28;19921;-70
2023/04/07 07:49:38;;;;;;;;;;;8.20;84.50;;;;;;5037266;28;19924;-70
2023/04/07 07:52:05;;;;;;;;;;;8.20;84.50;;;;;;5038188;28;19931;-72
2023/04/07 07:54:31;;;;;;;;;;;8.20;84.90;;;;;;5029315;28;19929;-72
2023/04/07 07:56:58;;;;;;;;;;;8.10;84.90;;;;;;5051312;28;19921;-72
2023/04/07 07:59:29;;;;;;;;;;;8.10;84.70;;;;;;5034553;28;20289;-72
2023/04/07 08:01:56;;;;;;;;;;;8.20;84.90;;;;;;5033626;28;19929;-63
2023/04/07 08:04:23;;;;;;;;;;;8.20;85.10;;;;;;5053453;28;19995;-66
2023/04/07 08:06:50;;;;;;;;;;;8.20;85.00;;;;;;5039908;28;19924;-62
2023/04/07 08:09:17;;;;;;;;;;;8.20;84.90;;;;;;5034363;28;19965;-61
2023/04/07 08:11:43;;;;;;;;;;;8.20;84.90;;;;;;5033534;28;19937;-73
2023/04/07 08:14:10;;;;;;;;;;;8.20;84.80;;;;;;5032024;28;20005;-73
2023/04/07 08:16:38;;;;;;;;;;;8.20;85.10;;;;;;5031979;28;20011;-72
2023/04/07 08:19:05;;;;;;;;;;;8.20;84.80;;;;;;5031147;28;19929;-73
2023/04/07 08:21:32;;;;;;;;;;;8.30;84.60;;;;;;5031398;28;19921;-71
2023/04/07 08:23:59;;;;;;;;;;;8.30;84.50;;;;;;5035464;28;19921;-72
2023/04/07 08:26:26;;;;;;;;;;;8.30;84.80;;;;;;5031907;28;19932;-62
2023/04/07 08:28:54;;;;;;;;;;;8.30;84.50;;;;;;5032098;28;19921;-62
2023/04/07 08:31:21;;;;;;;;;;;8.20;84.80;;;;;;5029571;28;19935;-61
2023/04/07 08:33:52;;;;;;;;;;;8.30;84.80;;;;;;5032059;28;19925;-63
2023/04/07 08:36:20;;;;;;;;;;;8.30;84.80;;;;;;5031978;28;19991;-71
2023/04/07 08:38:46;;;;;;;;;;;8.20;84.90;;;;;;5028468;28;19932;-71
2023/04/07 08:41:17;;;;;;;;;;;8.30;84.50;;;;;;5032751;28;19920;-63
2023/04/07 08:43:45;;;;;;;;;;;8.30;84.90;;;;;;5029747;28;19936;-62
2023/04/07 08:46:13;;;;;;;;;;;8.30;84.80;;;;;;5029177;28;19924;-63
2023/04/07 08:48:43;;;;;;;;;;;8.40;84.90;;;;;;5034283;28;19925;-63
2023/04/07 08:51:13;;;;;;;;;;;8.40;85.10;;;;;;5017074;28;19963;-62
2023/04/07 08:53:42;;;;;;;;;;;8.40;84.70;;;;;;5034030;28;19932;-63
2023/04/07 08:56:09;;;;;;;;;;;8.40;84.90;;;;;;5032852;28;19921;-61
2023/04/07 08:58:36;;;;;;;;;;;8.40;85.10;;;;;;5035329;28;21317;-63
2023/04/07 09:01:04;;;;;;;;;;;8.50;85.00;;;;;;5038227;28;19950;-62
2023/04/07 09:03:32;;;;;;;;;;;8.50;84.90;;;;;;5033104;28;19924;-63
2023/04/07 09:06:00;;;;;;;;;;;8.60;84.50;;;;;;5033868;28;19960;-63
2023/04/07 09:08:28;;;;;;;;;;;8.60;84.30;;;;;;5036597;28;19925;-61
2023/04/07 09:10:56;;;;;;;;;;;8.60;84.30;;;;;;5033375;28;19940;-63
2023/04/07 09:13:24;;;;;;;;;;;8.60;84.40;;;;;;5033560;28;19928;-62
2023/04/07 09:15:50;;;;;;;;;;;8.60;84.10;;;;;;5032539;28;19925;-63
2023/04/07 09:18:18;;;;;;;;;;;8.60;84.10;;;;;;5035297;28;19932;-63
2023/04/07 09:20:57;;;;;;;;;;;8.60;84.20;;;;;;5035262;28;19925;-63
2023/04/07 09:23:30;;;;;;;;;;;8.70;84.70;;;;;;5033510;28;19920;-62
2023/04/07 09:25:58;;;;;;;;;;;8.70;85.20;;;;;;5034588;28;19969;-62
2023/04/07 09:28:25;;;;;;;;;;;8.70;85.30;;;;;;5030170;28;19921;-64
2023/04/07 09:30:55;;;;;;;;;;;8.70;85.70;;;;;;5031426;28;19922;-63
2023/04/07 09:33:27;;;;;;;;;;;8.80;85.50;;;;;;5034489;28;20010;-63
2023/04/07 09:35:54;;;;;;;;;;;8.90;85.20;;;;;;5035124;28;19927;-62
2023/04/07 09:38:21;;;;;;;;;;;8.90;85.20;;;;;;5015091;28;19939;-62
2023/04/07 09:40:49;;;;;;;;;;;9.00;85.10;;;;;;5030338;28;19925;-61
2023/04/07 09:43:17;;;;;;;;;;;9.00;85.20;;;;;;5033023;28;19932;-62
2023/04/07 09:45:44;;;;;;;;;;;9.00;85.20;;;;;;5033264;28;19925;-63
2023/04/07 09:48:18;;;;;;;;;;;9.00;85.20;;;;;;5033233;28;19921;-61
2023/04/07 09:50:48;;;;;;;;;;;9.10;84.30;;;;;;5036252;28;19925;-62
2023/04/07 09:53:15;;;;;;;;;;;9.10;84.90;;;;;;5032393;28;19928;-64
2023/04/07 09:55:42;;;;;;;;;;;9.20;84.40;;;;;;5035268;28;19932;-62
2023/04/07 09:58:12;;;;;;;;;;;9.20;84.60;;;;;;5031826;28;20313;-61
2023/04/07 10:00:38;;;;;;;;;;;9.20;84.60;;;;;;5034326;28;19928;-62
2023/04/07 10:03:07;;;;;;;;;;;9.30;84.30;;;;;;5035677;28;20313;-62
2023/04/07 10:05:34;;;;;;;;;;;9.20;84.00;;;;;;5025024;28;20011;-62
2023/04/07 10:08:02;;;;;;;;;;;9.30;84.20;;;;;;5035630;28;19929;-63
2023/04/07 10:10:30;;;;;;;;;;;9.40;84.00;;;;;;5032164;28;20454;-63
2023/04/07 10:12:57;;;;;;;;;;;9.40;84.10;;;;;;5033582;28;19925;-62
2023/04/07 10:15:26;;;;;;;;;;;9.50;83.90;;;;;;5034138;28;19931;-62
2023/04/07 10:17:53;;;;;;;;;;;9.60;83.60;;;;;;5034249;28;19997;-62
2023/04/07 10:20:20;;;;;;;;;;;9.60;83.90;;;;;;5036006;28;19920;-63
2023/04/07 10:22:48;;;;;;;;;;;9.70;83.70;;;;;;5028504;28;20636;-63
2023/04/07 10:25:16;;;;;;;;;;;9.70;83.50;;;;;;5035997;28;19921;-64
2023/04/07 10:27:49;;;;;;;;;;;9.70;83.40;;;;;;5036979;28;19925;-62
2023/04/07 10:30:18;;;;;;;;;;;9.70;83.20;;;;;;5033006;28;19999;-63
2023/04/07 10:32:50;;;;;;;;;;;9.80;83.20;;;;;;5036403;28;20309;-63
2023/04/07 10:35:17;;;;;;;;;;;9.80;83.00;;;;;;5029193;28;19928;-61
2023/04/07 10:37:58;;;;;;;;;;;9.80;83.20;;;;;;5032902;28;20494;-59
2023/04/07 10:40:29;;;;;;;;;;;9.90;82.90;;;;;;5030464;28;20469;-62
2023/04/07 10:42:56;;;;;;;;;;;9.90;82.70;;;;;;5035401;28;19925;-64
2023/04/07 10:45:41;;;;;;;;;;;10.00;82.80;;;;;;5033534;28;20010;-63
2023/04/07 10:48:13;;;;;;;;;;;10.20;82.70;;;;;;5036880;28;19982;-62
2023/04/07 10:50:41;;;;;;;;;;;10.20;82.40;;;;;;5033945;28;19931;-62
2023/04/07 10:53:08;;;;;;;;;;;10.30;82.40;;;;;;5032842;28;22645;-62
2023/04/07 10:55:36;;;;;;;;;;;10.30;81.80;;;;;;5032967;28;19933;-63
2023/04/07 10:58:22;;;;;;;;;;;10.30;81.50;;;;;;5032911;28;20021;-63
2023/04/07 11:01:08;;;;;;;;;;;10.40;81.80;;;;;;5030583;28;19921;-62
2023/04/07 11:03:37;;;;;;;;;;;10.50;82.10;;;;;;5029324;28;20024;-63
2023/04/07 11:06:04;;;;;;;;;;;10.60;82.00;;;;;;5028920;28;19932;-61
2023/04/07 11:08:34;;;;;;;;;;;10.60;81.90;;;;;;5031825;28;19925;-63
2023/04/07 11:11:01;;;;;;;;;;;10.60;81.80;;;;;;5032317;28;19929;-63
2023/04/07 11:13:27;;;;;;;;;;;10.70;81.70;;;;;;5035046;28;19920;-63
2023/04/07 11:15:55;;;;;;;;;;;10.80;81.30;;;;;;5032548;28;19929;-68
2023/04/07 11:18:23;;;;;;;;;;;10.90;81.30;;;;;;5032345;28;20342;-68
2023/04/07 11:20:53;;;;;;;;;;;11.00;81.20;;;;;;5016013;28;19934;-67
2023/04/07 11:23:21;;;;;;;;;;;11.00;81.20;;;;;;5032334;28;19978;-68
2023/04/07 11:25:49;;;;;;;;;;;11.10;80.90;;;;;;5035263;28;19931;-63
2023/04/07 11:28:16;;;;;;;;;;;11.20;80.50;;;;;;5035936;28;20044;-63
2023/04/07 11:30:48;;;;;;;;;;;11.30;80.30;;;;;;5034003;28;20046;-61
2023/04/07 11:33:16;;;;;;;;;;;11.30;80.40;;;;;;5030485;28;19930;-63
2023/04/07 11:35:55;;;;;;;;;;;11.40;80.50;;;;;;5031455;28;19921;-64
2023/04/07 11:38:22;;;;;;;;;;;11.40;80.60;;;;;;5032705;28;19921;-62
2023/04/07 11:40:49;;;;;;;;;;;11.40;80.40;;;;;;5030360;28;19927;-72
2023/04/07 11:43:17;;;;;;;;;;;11.30;80.60;;;;;;5035564;28;19968;-72
2023/04/07 11:45:44;;;;;;;;;;;11.30;80.30;;;;;;5030014;28;19932;-63
2023/04/07 11:48:27;;;;;;;;;;;11.20;80.50;;;;;;5033336;28;19943;-64
2023/04/07 11:50:55;;;;;;;;;;;11.20;80.60;;;;;;5027082;28;19925;-63
2023/04/07 11:53:25;;;;;;;;;;;11.10;80.40;;;;;;5034914;28;20450;-63
2023/04/07 11:55:59;;;;;;;;;;;11.00;80.60;;;;;;5032107;28;19947;-71
2023/04/07 11:58:26;;;;;;;;;;;10.90;80.40;;;;;;5034781;28;19929;-71
2023/04/07 12:00:53;;;;;;;;;;;10.90;80.60;;;;;;5034825;28;19931;-71
2023/04/07 12:03:19;;;;;;;;;;;10.80;80.80;;;;;;5035092;28;19924;-70
2023/04/07 12:05:46;;;;;;;;;;;10.80;80.50;;;;;;5033254;28;19921;-70
2023/04/07 12:08:15;;;;;;;;;;;10.80;80.70;;;;;;5024561;28;20015;-70
2023/04/07 12:10:42;;;;;;;;;;;10.80;80.70;;;;;;5028983;28;20391;-70
2023/04/07 12:13:09;;;;;;;;;;;10.80;80.80;;;;;;5028417;28;19955;-68
2023/04/07 12:15:36;;;;;;;;;;;10.90;81.10;;;;;;5025909;28;19920;-71
2023/04/07 12:18:03;;;;;;;;;;;10.90;80.90;;;;;;5033357;28;19929;-70
2023/04/07 12:20:30;;;;;;;;;;;10.90;80.90;;;;;;5025760;28;19925;-71
2023/04/07 12:22:57;;;;;;;;;;;10.90;81.00;;;;;;5035415;28;20016;-71
2023/04/07 12:25:26;;;;;;;;;;;11.00;80.90;;;;;;5034945;28;19936;-73
2023/04/07 12:27:53;;;;;;;;;;;11.00;80.70;;;;;;5036958;28;20044;-71
2023/04/07 12:30:20;;;;;;;;;;;11.10;80.50;;;;;;5037923;28;20213;-63
2023/04/07 12:32:47;;;;;;;;;;;11.20;80.40;;;;;;5034446;28;19980;-62
2023/04/07 12:35:13;;;;;;;;;;;11.20;80.20;;;;;;5036801;28;19940;-65
2023/04/07 12:37:40;;;;;;;;;;;11.30;80.10;;;;;;5034667;28;19929;-64
2023/04/07 12:40:07;;;;;;;;;;;11.30;80.20;;;;;;5033084;28;19937;-64
2023/04/07 12:42:35;;;;;;;;;;;11.30;80.30;;;;;;5018014;28;20280;-64
2023/04/07 12:45:03;;;;;;;;;;;11.30;80.10;;;;;;5035876;28;19932;-64
2023/04/07 12:47:29;;;;;;;;;;;11.30;79.90;;;;;;5031439;28;19929;-64
2023/04/07 12:49:56;;;;;;;;;;;11.40;79.60;;;;;;5035267;28;19931;-63
2023/04/07 12:52:23;;;;;;;;;;;11.50;79.50;;;;;;5033071;28;19932;-64
2023/04/07 12:54:50;;;;;;;;;;;11.60;79.20;;;;;;5038609;28;19943;-64
2023/04/07 12:57:16;;;;;;;;;;;11.60;78.70;;;;;;5032106;28;19956;-65
2023/04/07 12:59:44;;;;;;;;;;;11.60;78.80;;;;;;5032266;28;19974;-64
2023/04/07 13:02:12;;;;;;;;;;;11.60;78.80;;;;;;5026136;28;19929;-64
2023/04/07 13:04:39;;;;;;;;;;;11.70;78.60;;;;;;5033659;28;19929;-64
2023/04/07 13:07:07;;;;;;;;;;;11.70;78.60;;;;;;5028704;28;19921;-64
2023/04/07 13:09:33;;;;;;;;;;;11.80;78.30;;;;;;5029285;28;19921;-63
2023/04/07 13:12:01;;;;;;;;;;;11.90;78.10;;;;;;5033031;28;19964;-64
2023/04/07 13:14:28;;;;;;;;;;;11.90;78.00;;;;;;5033596;28;19931;-63
2023/04/07 13:16:56;;;;;;;;;;;11.90;77.80;;;;;;5037620;28;20560;-63
2023/04/07 13:19:23;;;;;;;;;;;11.90;77.70;;;;;;5035427;28;20062;-65
2023/04/07 13:21:49;;;;;;;;;;;11.90;77.70;;;;;;5036016;28;19921;-64
2023/04/07 13:24:16;;;;;;;;;;;11.90;77.70;;;;;;5031428;28;19925;-65
2023/04/07 13:26:43;;;;;;;;;;;11.90;77.70;;;;;;5030932;28;20503;-62
2023/04/07 13:29:10;;;;;;;;;;;11.90;77.70;;;;;;5032807;28;19928;-64
2023/04/07 13:31:36;;;;;;;;;;;11.90;77.90;;;;;;5028681;28;20323;-72
2023/04/07 13:34:05;;;;;;;;;;;11.90;77.80;;;;;;5035053;28;19921;-72
2023/04/07 13:36:31;;;;;;;;;;;11.90;77.60;;;;;;5031595;28;19921;-73
2023/04/07 13:38:58;;;;;;;;;;;11.80;77.40;;;;;;5033118;28;19929;-74
2023/04/07 13:41:25;;;;;;;;;;;11.90;77.40;;;;;;5034438;28;19925;-71
2023/04/07 13:43:52;;;;;;;;;;;11.90;77.30;;;;;;5036624;28;19929;-73
2023/04/07 13:46:18;;;;;;;;;;;12.00;77.00;;;;;;5032142;28;19924;-71
2023/04/07 13:48:45;;;;;;;;;;;12.00;76.90;;;;;;5035070;28;19927;-73
2023/04/07 13:51:13;;;;;;;;;;;12.00;77.00;;;;;;5033638;28;19924;-71
2023/04/07 13:53:40;;;;;;;;;;;12.10;77.40;;;;;;5033630;28;20303;-71
2023/04/07 13:56:07;;;;;;;;;;;12.00;77.30;;;;;;5031845;28;19925;-72
2023/04/07 13:58:34;;;;;;;;;;;12.00;76.90;;;;;;5032996;28;19944;-72
2023/04/07 14:01:01;;;;;;;;;;;11.90;76.90;;;;;;5029892;28;19970;-73
2023/04/07 14:03:27;;;;;;;;;;;11.90;77.00;;;;;;5032227;28;19928;-71
2023/04/07 14:05:59;;;;;;;;;;;11.90;77.20;;;;;;5035566;28;20308;-73
2023/04/07 14:08:27;;;;;;;;;;;11.90;77.20;;;;;;5035052;28;19932;-74
2023/04/07 14:10:54;;;;;;;;;;;11.90;77.20;;;;;;5029815;28;19921;-73
2023/04/07 14:13:21;;;;;;;;;;;11.90;77.20;;;;;;5027065;28;19970;-71
2023/04/07 14:15:48;;;;;;;;;;;11.90;76.90;;;;;;5030127;28;19931;-72
2023/04/07 14:18:16;;;;;;;;;;;12.00;76.70;;;;;;5033420;28;19925;-73
2023/04/07 14:20:42;;;;;;;;;;;11.90;76.40;;;;;;5033108;28;20040;-68
2023/04/07 14:23:09;;;;;;;;;;;11.90;76.20;;;;;;5031772;28;19975;-67
2023/04/07 14:25:37;;;;;;;;;;;11.90;76.40;;;;;;5031920;28;19921;-68
2023/04/07 14:28:04;;;;;;;;;;;11.90;76.50;;;;;;5034430;28;19925;-68
2023/04/07 14:30:33;;;;;;;;;;;11.90;76.10;;;;;;5030661;28;19948;-68
2023/04/07 14:33:00;;;;;;;;;;;11.90;76.00;;;;;;5028642;28;20039;-69